Terminal Aerodrome Forecast
Issued by NWS

Home | Current Version | Previous Version | Text Only | Print | Product List | Glossary On
Versions: 1 2 3 4 5 6 7 8 9 10 11 12 13 14 15 16 17 18 19 20 21 22 23 24 25 26 27 28 29 30 31 32 33 34 35 36 37
000
FTUS43 KDLH 291600 AAD
TAFHIB
TAF AMD
KHIB 291636Z 2917/3012 06008KT P6SM OVC015
     FM292100 07006KT P6SM BKN015
      TEMPO 2922/3001 SCT015
     FM300700 VRB03KT 5SM BR BKN006=

USA.gov is the U.S. government's official web portal to all federal, state and local government web resources and services.